Time;durP1;ratioP1;P1;durP2;ratioP2;P2;SDS_P1;SDS_P2;PMS_P1;PMS_P2;Temp;Humidity;BMP_temperature;BMP_pressure;BME280_temperature;BME280_humidity;BME280_pressure;Samples;Min_cycle;Max_cycle;Signal;HPM_P1;HPM_P2
2021/01/28 00:00:43;;;;;;;6.00;2.33;;;;;;;;;;5085563;28;20486;-54
2021/01/28 00:03:10;;;;;;;3.37;2.23;;;;;;;;;;5095787;27;20055;-54
2021/01/28 00:05:37;;;;;;;3.73;2.33;;;;;;;;;;5087460;28;20830;-51
2021/01/28 00:08:03;;;;;;;3.03;2.40;;;;;;;;;;5075647;28;20181;-51
2021/01/28 00:10:30;;;;;;;5.40;2.40;;;;;;;;;;5082081;28;20093;-53
2021/01/28 00:12:57;;;;;;;2.83;2.20;;;;;;;;;;5085200;28;20036;-52
2021/01/28 00:15:23;;;;;;;5.23;3.50;;;;;;;;;;5070477;28;20061;-49
2021/01/28 00:17:49;;;;;;;4.93;3.43;;;;;;;;;;5075281;28;20498;-50
2021/01/28 00:20:17;;;;;;;4.17;2.90;;;;;;;;;;5085063;28;20039;-51
2021/01/28 00:22:43;;;;;;;5.77;3.37;;;;;;;;;;5079588;28;20033;-52
2021/01/28 00:25:10;;;;;;;3.90;2.70;;;;;;;;;;5079757;28;20047;-51
2021/01/28 00:27:36;;;;;;;4.87;2.63;;;;;;;;;;5084231;28;20484;-51
2021/01/28 00:30:04;;;;;;;7.03;3.73;;;;;;;;;;5075672;28;20089;-50
2021/01/28 00:32:30;;;;;;;5.00;2.87;;;;;;;;;;5076604;28;20043;-50
2021/01/28 00:34:56;;;;;;;4.23;2.70;;;;;;;;;;5066061;28;20048;-52
2021/01/28 00:37:22;;;;;;;5.37;2.77;;;;;;;;;;5080446;28;20528;-53
2021/01/28 00:39:48;;;;;;;3.33;2.70;;;;;;;;;;5076711;28;20052;-52
2021/01/28 00:42:14;;;;;;;6.73;3.10;;;;;;;;;;5046143;28;20483;-51
2021/01/28 00:44:40;;;;;;;3.70;2.60;;;;;;;;;;5024398;28;20041;-50
2021/01/28 00:47:06;;;;;;;3.87;2.70;;;;;;;;;;4999788;28;20095;-53
2021/01/28 00:49:32;;;;;;;3.67;2.87;;;;;;;;;;5007953;28;20038;-53
2021/01/28 00:51:58;;;;;;;3.33;2.53;;;;;;;;;;5000598;28;20042;-55
2021/01/28 00:54:24;;;;;;;3.70;2.83;;;;;;;;;;4993652;28;20396;-54
2021/01/28 00:56:50;;;;;;;5.77;2.70;;;;;;;;;;5039467;28;20042;-51
2021/01/28 00:59:16;;;;;;;3.77;2.60;;;;;;;;;;4993937;28;20041;-54
2021/01/28 01:01:42;;;;;;;2.70;2.13;;;;;;;;;;4993444;28;20039;-53
2021/01/28 01:04:08;;;;;;;4.50;2.77;;;;;;;;;;5031137;28;20129;-50
2021/01/28 01:06:34;;;;;;;3.23;2.50;;;;;;;;;;4998131;28;20503;-51
2021/01/28 01:09:00;;;;;;;3.40;3.00;;;;;;;;;;4994882;28;20068;-52
2021/01/28 01:11:26;;;;;;;4.07;3.10;;;;;;;;;;4999316;28;20044;-50
2021/01/28 01:13:52;;;;;;;4.17;2.97;;;;;;;;;;5003662;28;20045;-51
2021/01/28 01:16:19;;;;;;;3.70;2.93;;;;;;;;;;4991175;28;20053;-50
2021/01/28 01:18:45;;;;;;;3.70;2.97;;;;;;;;;;5001095;28;20062;-50
2021/01/28 01:21:11;;;;;;;3.70;3.30;;;;;;;;;;4998024;28;20400;-54
2021/01/28 01:23:37;;;;;;;4.63;3.50;;;;;;;;;;4996673;28;20057;-55
2021/01/28 01:26:03;;;;;;;6.23;4.50;;;;;;;;;;4989998;28;20034;-55
2021/01/28 01:28:29;;;;;;;5.40;3.73;;;;;;;;;;4990316;28;20064;-55
2021/01/28 01:30:56;;;;;;;5.17;4.23;;;;;;;;;;4997233;28;20046;-54
2021/01/28 01:33:22;;;;;;;4.23;3.67;;;;;;;;;;5023245;28;20058;-51
2021/01/28 01:35:48;;;;;;;7.00;3.90;;;;;;;;;;5000409;28;20052;-51
2021/01/28 01:38:15;;;;;;;4.97;3.73;;;;;;;;;;4999962;28;20033;-50
2021/01/28 01:40:46;;;;;;;7.00;4.10;;;;;;;;;;5002862;28;20428;-55
2021/01/28 01:43:13;;;;;;;7.03;4.87;;;;;;;;;;5083368;27;20400;-54
2021/01/28 01:45:42;;;;;;;5.67;4.30;;;;;;;;;;5079348;28;20036;-55
2021/01/28 01:48:14;;;;;;;6.93;5.10;;;;;;;;;;5083512;27;20100;-55
2021/01/28 01:50:43;;;;;;;5.83;4.70;;;;;;;;;;5078054;28;20408;-55
2021/01/28 01:53:15;;;;;;;6.57;5.17;;;;;;;;;;5082647;28;20076;-51
2021/01/28 01:55:43;;;;;;;7.90;5.10;;;;;;;;;;5077066;28;20138;-52
2021/01/28 01:58:11;;;;;;;7.93;5.03;;;;;;;;;;5067912;28;20520;-52
2021/01/28 02:00:37;;;;;;;7.43;5.70;;;;;;;;;;5068384;28;20115;-52
2021/01/28 02:03:07;;;;;;;7.10;5.53;;;;;;;;;;5079297;28;20056;-52
2021/01/28 02:05:36;;;;;;;7.03;5.20;;;;;;;;;;5082100;28;20036;-50
2021/01/28 02:08:04;;;;;;;6.53;4.33;;;;;;;;;;5074498;28;20029;-50
2021/01/28 02:10:30;;;;;;;6.57;5.20;;;;;;;;;;5081289;28;20067;-52
2021/01/28 02:12:56;;;;;;;6.67;5.20;;;;;;;;;;5084551;28;20534;-53
2021/01/28 02:15:25;;;;;;;7.93;5.23;;;;;;;;;;5088717;28;20036;-52
2021/01/28 02:17:52;;;;;;;6.53;5.00;;;;;;;;;;5075757;28;20042;-53
2021/01/28 02:20:35;;;;;;;6.43;4.77;;;;;;;;;;5067363;28;20097;-50
2021/01/28 02:23:22;;;;;;;6.73;4.50;;;;;;;;;;5054043;28;20062;-53
2021/01/28 02:25:50;;;;;;;7.57;4.60;;;;;;;;;;5075399;28;20123;-54
2021/01/28 02:28:17;;;;;;;6.73;5.00;;;;;;;;;;5083754;28;20354;-49
2021/01/28 02:30:43;;;;;;;6.33;4.80;;;;;;;;;;5082258;28;20451;-51
2021/01/28 02:33:11;;;;;;;7.47;5.37;;;;;;;;;;5078530;28;20043;-50
2021/01/28 02:35:38;;;;;;;7.33;5.33;;;;;;;;;;5077439;28;20136;-50
2021/01/28 02:38:06;;;;;;;7.07;5.07;;;;;;;;;;5084043;28;20040;-50
2021/01/28 02:40:32;;;;;;;5.37;4.70;;;;;;;;;;5082495;27;20423;-50
2021/01/28 02:42:58;;;;;;;7.17;5.30;;;;;;;;;;5051757;28;20065;-54
2021/01/28 02:45:26;;;;;;;6.37;4.80;;;;;;;;;;4991139;28;20758;-50
2021/01/28 02:47:56;;;;;;;6.10;4.57;;;;;;;;;;5005185;28;20065;-53
2021/01/28 02:50:22;;;;;;;6.43;4.63;;;;;;;;;;5021242;28;20088;-51
2021/01/28 02:52:52;;;;;;;6.10;4.07;;;;;;;;;;5003282;28;20042;-51
2021/01/28 02:55:18;;;;;;;6.27;4.63;;;;;;;;;;5026525;28;20116;-50
2021/01/28 02:57:44;;;;;;;6.60;4.33;;;;;;;;;;4998245;28;20042;-53
2021/01/28 03:00:11;;;;;;;4.83;3.80;;;;;;;;;;4996730;28;20038;-54
2021/01/28 03:02:37;;;;;;;4.43;3.50;;;;;;;;;;5008517;28;20934;-54
2021/01/28 03:05:04;;;;;;;5.43;3.20;;;;;;;;;;5009249;27;20050;-54
2021/01/28 03:07:30;;;;;;;3.80;3.20;;;;;;;;;;5012976;28;20026;-52
2021/01/28 03:09:56;;;;;;;2.93;2.57;;;;;;;;;;4993491;28;20034;-51
2021/01/28 03:12:22;;;;;;;4.33;2.80;;;;;;;;;;5015304;28;20131;-53
2021/01/28 03:14:48;;;;;;;3.13;2.60;;;;;;;;;;5011593;28;20039;-53
2021/01/28 03:17:14;;;;;;;3.47;3.00;;;;;;;;;;4997164;28;20069;-51
2021/01/28 03:19:40;;;;;;;3.87;2.53;;;;;;;;;;4999367;28;20038;-50
2021/01/28 03:22:06;;;;;;;3.77;2.87;;;;;;;;;;5037717;28;20044;-51
2021/01/28 03:24:32;;;;;;;3.27;2.60;;;;;;;;;;4987757;28;20050;-52
2021/01/28 03:26:58;;;;;;;2.93;2.20;;;;;;;;;;5016032;28;20554;-52
2021/01/28 03:29:25;;;;;;;4.23;3.10;;;;;;;;;;4994461;28;20183;-49
2021/01/28 03:31:51;;;;;;;2.63;2.37;;;;;;;;;;4999906;28;20042;-50
2021/01/28 03:34:17;;;;;;;3.60;2.67;;;;;;;;;;4996702;28;20433;-51
2021/01/28 03:36:43;;;;;;;4.07;2.70;;;;;;;;;;5000610;28;20168;-50
2021/01/28 03:39:09;;;;;;;4.20;3.50;;;;;;;;;;4996657;28;20052;-52
2021/01/28 03:41:35;;;;;;;3.50;3.20;;;;;;;;;;4995493;28;20050;-49
2021/01/28 03:44:01;;;;;;;4.33;3.47;;;;;;;;;;4999072;28;20069;-51
2021/01/28 03:46:27;;;;;;;4.97;3.73;;;;;;;;;;4997539;28;20397;-55
2021/01/28 03:48:54;;;;;;;4.43;3.60;;;;;;;;;;5006266;28;20057;-54
2021/01/28 03:51:20;;;;;;;6.50;3.77;;;;;;;;;;5003779;28;20106;-53
2021/01/28 03:53:46;;;;;;;3.53;3.23;;;;;;;;;;5007107;28;20486;-51
2021/01/28 03:56:12;;;;;;;5.27;3.43;;;;;;;;;;4996358;28;20128;-55
2021/01/28 03:58:38;;;;;;;5.97;3.93;;;;;;;;;;5000332;28;20026;-53
2021/01/28 04:01:04;;;;;;;3.87;3.53;;;;;;;;;;5004856;28;20039;-55
2021/01/28 04:03:30;;;;;;;4.77;3.37;;;;;;;;;;5000156;28;20052;-54
2021/01/28 04:05:56;;;;;;;6.03;3.73;;;;;;;;;;4999017;28;20464;-53
2021/01/28 04:08:22;;;;;;;4.67;3.63;;;;;;;;;;4986162;28;20183;-56
2021/01/28 04:10:48;;;;;;;5.77;3.87;;;;;;;;;;5000898;28;20046;-52
2021/01/28 04:13:14;;;;;;;6.30;4.20;;;;;;;;;;4993637;28;20050;-55
2021/01/28 04:15:40;;;;;;;5.10;3.67;;;;;;;;;;4996096;28;20052;-53
2021/01/28 04:18:06;;;;;;;7.90;4.13;;;;;;;;;;4997883;28;20065;-51
2021/01/28 04:20:33;;;;;;;5.13;3.70;;;;;;;;;;4998848;28;20050;-52
2021/01/28 04:22:59;;;;;;;6.37;3.90;;;;;;;;;;5003740;28;20140;-53
2021/01/28 04:25:26;;;;;;;5.70;3.63;;;;;;;;;;4994586;28;20038;-50
2021/01/28 04:27:52;;;;;;;5.53;3.70;;;;;;;;;;4996998;28;20030;-49
2021/01/28 04:30:23;;;;;;;4.90;3.40;;;;;;;;;;4999622;28;20035;-52
2021/01/28 04:32:49;;;;;;;5.03;3.70;;;;;;;;;;4993500;28;20083;-54
2021/01/28 04:35:15;;;;;;;4.43;3.30;;;;;;;;;;4998752;28;20034;-50
2021/01/28 04:37:41;;;;;;;4.67;3.63;;;;;;;;;;4997211;28;20046;-53
2021/01/28 04:40:09;;;;;;;6.50;4.13;;;;;;;;;;4997100;28;20152;-55
2021/01/28 04:42:41;;;;;;;4.40;3.30;;;;;;;;;;5006625;28;20090;-51
2021/01/28 04:45:08;;;;;;;5.53;3.80;;;;;;;;;;4998966;28;20070;-53
2021/01/28 04:47:36;;;;;;;4.47;3.73;;;;;;;;;;4998804;28;20099;-50
2021/01/28 04:50:04;;;;;;;4.23;3.43;;;;;;;;;;4998658;28;20386;-51
2021/01/28 04:52:35;;;;;;;8.17;5.20;;;;;;;;;;4996758;28;20033;-51
2021/01/28 04:55:02;;;;;;;8.30;5.53;;;;;;;;;;5031563;28;20123;-52
2021/01/28 04:57:28;;;;;;;8.17;6.20;;;;;;;;;;4994002;28;20035;-50
2021/01/28 04:59:54;;;;;;;11.70;8.13;;;;;;;;;;4997786;28;20492;-52
2021/01/28 05:02:22;;;;;;;12.03;9.47;;;;;;;;;;4995511;28;20069;-52
2021/01/28 05:04:57;;;;;;;8.97;7.67;;;;;;;;;;5034402;28;20081;-52
2021/01/28 05:07:26;;;;;;;15.30;9.73;;;;;;;;;;5001233;28;20364;-51
2021/01/28 05:10:02;;;;;;;13.63;9.33;;;;;;;;;;4997960;28;20057;-51
2021/01/28 05:12:28;;;;;;;12.50;8.97;;;;;;;;;;4978630;28;20035;-53
2021/01/28 05:15:09;;;;;;;12.50;8.77;;;;;;;;;;4993238;28;20046;-49
2021/01/28 05:17:37;;;;;;;13.87;8.43;;;;;;;;;;4992445;28;20043;-55
2021/01/28 05:20:03;;;;;;;10.23;7.80;;;;;;;;;;4994887;28;20490;-51
2021/01/28 05:22:32;;;;;;;10.10;7.53;;;;;;;;;;4992546;28;20034;-56
2021/01/28 05:25:00;;;;;;;10.43;8.33;;;;;;;;;;5032205;28;20141;-51
2021/01/28 05:27:26;;;;;;;11.57;7.80;;;;;;;;;;5001052;28;20034;-53
2021/01/28 05:29:54;;;;;;;10.73;7.30;;;;;;;;;;5003697;28;20042;-53
2021/01/28 05:32:34;;;;;;;10.80;7.97;;;;;;;;;;5002801;28;20038;-54
2021/01/28 05:35:15;;;;;;;7.67;6.23;;;;;;;;;;4999168;28;20042;-52
2021/01/28 05:37:41;;;;;;;9.10;6.37;;;;;;;;;;4995178;28;20064;-50
2021/01/28 05:40:13;;;;;;;8.87;6.50;;;;;;;;;;5003401;28;20049;-51
2021/01/28 05:42:41;;;;;;;9.07;6.57;;;;;;;;;;5007958;28;20038;-51
2021/01/28 05:45:27;;;;;;;9.87;6.20;;;;;;;;;;4994618;28;20058;-51
2021/01/28 05:47:53;;;;;;;7.30;5.50;;;;;;;;;;4994961;28;20121;-52
2021/01/28 05:50:22;;;;;;;11.43;6.83;;;;;;;;;;5000688;28;20041;-54
2021/01/28 05:52:48;;;;;;;9.47;5.97;;;;;;;;;;5037649;28;20094;-55
2021/01/28 05:55:23;;;;;;;7.50;5.67;;;;;;;;;;4999801;28;20029;-54
2021/01/28 05:57:52;;;;;;;8.68;6.10;;;;;;;;;;4992900;28;20045;-55
2021/01/28 06:00:24;;;;;;;9.07;6.63;;;;;;;;;;4997461;28;20052;-53
2021/01/28 06:02:50;;;;;;;9.20;6.77;;;;;;;;;;4999481;28;20038;-50
2021/01/28 06:05:22;;;;;;;7.37;5.60;;;;;;;;;;5004706;28;20042;-54
2021/01/28 06:08:07;;;;;;;8.43;5.73;;;;;;;;;;4996848;28;20050;-53
2021/01/28 06:11:00;;;;;;;11.82;5.65;;;;;;;;;;4979961;28;20421;-54
2021/01/28 06:13:46;;;;;;;10.03;5.83;;;;;;;;;;4997014;28;20026;-51
2021/01/28 06:16:12;;;;;;;10.03;5.67;;;;;;;;;;4977052;28;20115;-51
2021/01/28 06:18:38;;;;;;;6.30;5.27;;;;;;;;;;4993316;28;20050;-51
2021/01/28 06:21:20;;;;;;;9.97;6.30;;;;;;;;;;4999424;28;20038;-54
2021/01/28 06:24:12;;;;;;;8.50;5.43;;;;;;;;;;4998831;28;20075;-50
2021/01/28 06:26:51;;;;;;;7.30;5.90;;;;;;;;;;4969237;28;20503;-50
2021/01/28 06:29:23;;;;;;;10.77;6.00;;;;;;;;;;4999897;28;20037;-50
2021/01/28 06:32:08;;;;;;;6.60;5.57;;;;;;;;;;5000528;28;20045;-55
2021/01/28 06:34:37;;;;;;;15.02;7.70;;;;;;;;;;4978727;28;20045;-56
2021/01/28 06:37:03;;;;;;;7.20;5.43;;;;;;;;;;5003751;28;20026;-51
2021/01/28 06:39:29;;;;;;;7.30;5.60;;;;;;;;;;5020356;28;20082;-50
2021/01/28 06:42:08;;;;;;;7.13;5.60;;;;;;;;;;5012004;28;20036;-50
2021/01/28 06:44:40;;;;;;;8.13;5.37;;;;;;;;;;5004900;28;20107;-49
2021/01/28 06:47:20;;;;;;;8.80;5.77;;;;;;;;;;5001431;28;20042;-54
2021/01/28 06:49:46;;;;;;;8.63;5.93;;;;;;;;;;5004641;28;20034;-55
2021/01/28 06:52:12;;;;;;;9.90;5.83;;;;;;;;;;5025446;28;20076;-54
2021/01/28 06:54:38;;;;;;;8.27;5.87;;;;;;;;;;5029431;28;20035;-54
2021/01/28 06:57:12;;;;;;;7.07;5.63;;;;;;;;;;5018090;28;20025;-54
2021/01/28 06:59:47;;;;;;;7.37;5.33;;;;;;;;;;5007849;28;20034;-54
2021/01/28 07:02:23;;;;;;;7.83;5.20;;;;;;;;;;5034331;28;20043;-52
2021/01/28 07:04:53;;;;;;;7.10;4.80;;;;;;;;;;5014569;27;20100;-54
2021/01/28 07:07:24;;;;;;;8.60;5.10;;;;;;;;;;4999791;28;20072;-54
2021/01/28 07:10:13;;;;;;;11.47;4.93;;;;;;;;;;4999448;28;20042;-49
2021/01/28 07:12:50;;;;;;;7.43;5.37;;;;;;;;;;4980155;28;20062;-55
2021/01/28 07:15:17;;;;;;;10.10;6.10;;;;;;;;;;4997367;28;20046;-54
2021/01/28 07:17:47;;;;;;;8.57;5.83;;;;;;;;;;4986852;28;20085;-55
2021/01/28 07:20:28;;;;;;;7.17;5.40;;;;;;;;;;4996126;28;20129;-51
2021/01/28 07:22:54;;;;;;;10.00;5.80;;;;;;;;;;5001924;28;20125;-54
2021/01/28 07:25:29;;;;;;;13.30;5.90;;;;;;;;;;4996976;28;20143;-54
2021/01/28 07:28:04;;;;;;;7.60;5.03;;;;;;;;;;4999746;28;20559;-51
2021/01/28 07:30:42;;;;;;;8.33;5.53;;;;;;;;;;4991357;28;20072;-52
2021/01/28 07:33:23;;;;;;;10.27;4.87;;;;;;;;;;5002318;28;20034;-52
2021/01/28 07:35:56;;;;;;;7.73;5.70;;;;;;;;;;5035705;28;20036;-51
2021/01/28 07:38:28;;;;;;;8.23;4.93;;;;;;;;;;4998940;28;20095;-51
2021/01/28 07:41:10;;;;;;;10.37;5.27;;;;;;;;;;4995650;28;20073;-53
2021/01/28 07:43:41;;;;;;;12.17;5.07;;;;;;;;;;4999330;28;20042;-52
2021/01/28 07:46:10;;;;;;;8.93;4.60;;;;;;;;;;4997724;28;20414;-54
2021/01/28 07:48:36;;;;;;;9.17;4.40;;;;;;;;;;5001863;28;20054;-51
2021/01/28 07:51:31;;;;;;;8.90;5.40;;;;;;;;;;5010623;28;20116;-54
2021/01/28 07:53:57;;;;;;;6.50;5.15;;;;;;;;;;4999276;28;20138;-57
2021/01/28 07:56:44;;;;;;;7.17;4.57;;;;;;;;;;5023922;27;20561;-58
2021/01/28 07:59:12;;;;;;;8.00;4.67;;;;;;;;;;4984103;27;20035;-56
2021/01/28 08:01:42;;;;;;;10.00;5.40;;;;;;;;;;4988236;28;20034;-56
2021/01/28 08:04:14;;;;;;;8.77;5.43;;;;;;;;;;5000215;28;20058;-55
2021/01/28 08:06:41;;;;;;;7.47;4.90;;;;;;;;;;5003891;28;20049;-55
2021/01/28 08:09:09;;;;;;;11.90;5.10;;;;;;;;;;5004363;28;20494;-55
2021/01/28 08:11:35;;;;;;;10.77;5.87;;;;;;;;;;4999212;28;20038;-55
2021/01/28 08:14:02;;;;;;;9.13;5.27;;;;;;;;;;4999267;28;20046;-54
2021/01/28 08:16:29;;;;;;;10.83;5.53;;;;;;;;;;5011996;28;20403;-55
2021/01/28 08:19:03;;;;;;;8.07;5.57;;;;;;;;;;5000802;28;20046;-51
2021/01/28 08:21:29;;;;;;;10.77;7.17;;;;;;;;;;4998623;28;20045;-55
2021/01/28 08:24:08;;;;;;;13.17;6.67;;;;;;;;;;4998545;28;20046;-52
2021/01/28 08:26:38;;;;;;;11.40;7.00;;;;;;;;;;4979338;28;20068;-55
2021/01/28 08:29:21;;;;;;;9.07;6.13;;;;;;;;;;5030413;28;20042;-54
2021/01/28 08:31:54;;;;;;;9.97;6.43;;;;;;;;;;5016702;28;20122;-56
2021/01/28 08:34:22;;;;;;;9.20;5.40;;;;;;;;;;4994444;28;20042;-54
2021/01/28 08:36:53;;;;;;;10.07;5.77;;;;;;;;;;4994195;28;20045;-55
2021/01/28 08:39:24;;;;;;;7.57;5.97;;;;;;;;;;4977540;28;20148;-56
2021/01/28 08:41:59;;;;;;;8.60;6.07;;;;;;;;;;4995249;28;20616;-53
2021/01/28 08:44:25;;;;;;;7.47;5.80;;;;;;;;;;4991678;28;20050;-58
2021/01/28 08:47:02;;;;;;;6.93;5.70;;;;;;;;;;4994648;28;20044;-54
2021/01/28 08:49:28;;;;;;;10.20;6.17;;;;;;;;;;4995206;27;20037;-55
2021/01/28 08:52:02;;;;;;;6.97;5.53;;;;;;;;;;4995043;28;20038;-57
2021/01/28 08:54:30;;;;;;;9.45;5.68;;;;;;;;;;4991941;28;20125;-55
2021/01/28 08:56:57;;;;;;;7.77;5.53;;;;;;;;;;4996305;28;20052;-55
2021/01/28 08:59:30;;;;;;;10.53;6.40;;;;;;;;;;4994448;28;20605;-54
2021/01/28 09:01:58;;;;;;;7.83;4.93;;;;;;;;;;4996306;28;20069;-55
2021/01/28 09:04:27;;;;;;;7.67;5.67;;;;;;;;;;5007816;28;20358;-60
2021/01/28 09:06:53;;;;;;;14.30;6.20;;;;;;;;;;4994511;28;20037;-54
2021/01/28 09:09:22;;;;;;;10.37;5.70;;;;;;;;;;4990790;28;20042;-54
2021/01/28 09:11:49;;;;;;;11.17;5.97;;;;;;;;;;4993637;28;20038;-55
2021/01/28 09:14:17;;;;;;;11.67;5.37;;;;;;;;;;4991296;28;20762;-54
2021/01/28 09:16:54;;;;;;;10.80;4.63;;;;;;;;;;4992906;28;20052;-55
2021/01/28 09:19:21;;;;;;;6.67;4.43;;;;;;;;;;4991125;28;20050;-56
2021/01/28 09:21:51;;;;;;;9.87;5.30;;;;;;;;;;4994568;28;20056;-54
2021/01/28 09:24:19;;;;;;;9.33;5.83;;;;;;;;;;4990010;28;20054;-54
2021/01/28 09:26:46;;;;;;;10.67;5.73;;;;;;;;;;4993656;28;20042;-54
2021/01/28 09:29:18;;;;;;;10.07;5.17;;;;;;;;;;4992724;28;20832;-53
2021/01/28 09:31:44;;;;;;;10.60;5.20;;;;;;;;;;4992825;28;20085;-55
2021/01/28 09:34:12;;;;;;;8.43;5.90;;;;;;;;;;4993350;28;20543;-53
2021/01/28 09:36:38;;;;;;;7.60;4.90;;;;;;;;;;4988716;28;20510;-54
2021/01/28 09:39:27;;;;;;;16.90;9.20;;;;;;;;;;4992177;28;20052;-54
2021/01/28 09:41:54;;;;;;;17.57;9.43;;;;;;;;;;4986810;28;20053;-55
2021/01/28 09:44:28;;;;;;;15.27;10.20;;;;;;;;;;4997770;28;20141;-55
2021/01/28 09:46:54;;;;;;;;;;;;;;;;;;4991400;28;20049;-55
2021/01/28 09:49:20;;;;;;;18.23;10.17;;;;;;;;;;4996289;28;19970;-55
2021/01/28 09:51:46;;;;;;;20.27;11.33;;;;;;;;;;4992694;28;20042;-54
2021/01/28 09:54:15;;;;;;;17.83;11.73;;;;;;;;;;4994625;28;20042;-56
2021/01/28 09:56:41;;;;;;;17.60;10.67;;;;;;;;;;4992548;28;20217;-55
2021/01/28 09:59:08;;;;;;;17.43;11.70;;;;;;;;;;4994254;28;20046;-56
2021/01/28 10:01:34;;;;;;;16.03;10.67;;;;;;;;;;4992460;28;20184;-55
2021/01/28 10:04:00;;;;;;;15.77;11.20;;;;;;;;;;4995771;28;20069;-56
2021/01/28 10:06:26;;;;;;;19.63;11.27;;;;;;;;;;5025854;28;20485;-55
2021/01/28 10:08:53;;;;;;;19.23;12.00;;;;;;;;;;5010885;28;20494;-56
2021/01/28 10:11:19;;;;;;;16.87;10.97;;;;;;;;;;4995196;28;20112;-56
2021/01/28 10:25:24;;;;;;;14.60;11.97;;;;;;;;;;5058471;27;20430;-60
2021/01/28 10:27:51;;;;;;;16.13;11.33;;;;;;;;;;5053989;28;20053;-55
2021/01/28 10:30:18;;;;;;;15.10;11.90;;;;;;;;;;5045481;28;20051;-54
2021/01/28 10:32:45;;;;;;;19.73;13.27;;;;;;;;;;5048862;28;20039;-54
2021/01/28 10:35:11;;;;;;;19.70;11.53;;;;;;;;;;5052840;28;20041;-55
2021/01/28 10:37:37;;;;;;;17.70;11.60;;;;;;;;;;5051293;28;20032;-52
2021/01/28 10:40:05;;;;;;;18.57;12.63;;;;;;;;;;5059078;28;20033;-55
2021/01/28 10:42:38;;;;;;;20.63;12.27;;;;;;;;;;5062835;28;20485;-55
2021/01/28 10:45:05;;;;;;;21.53;13.13;;;;;;;;;;5059679;28;20072;-56
2021/01/28 10:47:31;;;;;;;16.63;11.87;;;;;;;;;;5063370;28;20468;-51
2021/01/28 10:49:57;;;;;;;14.53;11.90;;;;;;;;;;5060661;28;20129;-55
2021/01/28 10:52:23;;;;;;;19.60;13.23;;;;;;;;;;5048243;28;20028;-56
2021/01/28 10:54:49;;;;;;;20.30;12.80;;;;;;;;;;5059859;28;20110;-55
2021/01/28 10:57:15;;;;;;;17.60;13.00;;;;;;;;;;5063197;28;20052;-55
2021/01/28 10:59:41;;;;;;;17.40;12.33;;;;;;;;;;5057556;28;20497;-54
2021/01/28 11:02:07;;;;;;;23.10;12.27;;;;;;;;;;5061782;28;20033;-54
2021/01/28 11:04:33;;;;;;;14.97;12.60;;;;;;;;;;5047742;28;20128;-56
2021/01/28 11:06:59;;;;;;;17.60;12.17;;;;;;;;;;5062666;28;20424;-56
2021/01/28 11:09:25;;;;;;;17.63;12.43;;;;;;;;;;5057049;28;20113;-58
2021/01/28 11:11:51;;;;;;;16.73;12.00;;;;;;;;;;5062830;28;20048;-55
2021/01/28 11:14:17;;;;;;;21.23;12.67;;;;;;;;;;5048845;28;20070;-52
2021/01/28 11:16:43;;;;;;;16.10;11.70;;;;;;;;;;5050302;28;20033;-55
2021/01/28 11:19:09;;;;;;;15.37;11.27;;;;;;;;;;5053053;28;20032;-53
2021/01/28 11:21:35;;;;;;;21.30;13.70;;;;;;;;;;5051953;28;20110;-51
2021/01/28 11:24:01;;;;;;;17.43;12.70;;;;;;;;;;5050424;28;20512;-55
2021/01/28 11:26:27;;;;;;;18.23;12.97;;;;;;;;;;5014936;28;20046;-52
2021/01/28 11:28:53;;;;;;;17.00;12.23;;;;;;;;;;5022154;28;20042;-52
2021/01/28 11:31:19;;;;;;;24.50;16.33;;;;;;;;;;5019900;28;20044;-51
2021/01/28 11:33:45;;;;;;;20.93;13.67;;;;;;;;;;5035619;28;20626;-51
2021/01/28 11:36:11;;;;;;;17.43;12.97;;;;;;;;;;5036635;28;20085;-51
2021/01/28 11:38:37;;;;;;;16.60;12.80;;;;;;;;;;5039514;28;20513;-55
2021/01/28 11:41:05;;;;;;;18.07;13.00;;;;;;;;;;5027880;28;20041;-52
2021/01/28 11:43:31;;;;;;;16.93;12.33;;;;;;;;;;5043787;28;20111;-56
2021/01/28 11:45:57;;;;;;;20.10;14.43;;;;;;;;;;5033972;28;20487;-56
2021/01/28 11:48:23;;;;;;;22.67;14.67;;;;;;;;;;5040080;28;20033;-55
2021/01/28 11:50:50;;;;;;;21.07;13.40;;;;;;;;;;5030789;28;20041;-54
2021/01/28 11:53:16;;;;;;;17.93;14.70;;;;;;;;;;5035989;28;20041;-55
2021/01/28 11:55:42;;;;;;;17.53;12.70;;;;;;;;;;5030911;28;20413;-53
2021/01/28 11:58:08;;;;;;;16.93;13.63;;;;;;;;;;5030155;28;20045;-53
2021/01/28 12:00:34;;;;;;;17.90;13.50;;;;;;;;;;5036609;28;20037;-55
2021/01/28 12:03:00;;;;;;;16.57;12.27;;;;;;;;;;5030291;28;20049;-53
2021/01/28 12:05:28;;;;;;;17.23;13.33;;;;;;;;;;5033713;28;20083;-54
2021/01/28 12:07:55;;;;;;;16.40;13.33;;;;;;;;;;5028129;28;20040;-55
2021/01/28 12:10:22;;;;;;;15.87;13.10;;;;;;;;;;5032244;28;20106;-55
2021/01/28 12:12:48;;;;;;;16.83;13.93;;;;;;;;;;5032374;28;20091;-56
2021/01/28 12:15:14;;;;;;;17.03;13.67;;;;;;;;;;5032003;28;20041;-55
2021/01/28 12:17:41;;;;;;;18.70;13.70;;;;;;;;;;5011026;28;20638;-56
2021/01/28 12:20:07;;;;;;;18.60;14.67;;;;;;;;;;5034338;28;20036;-56
2021/01/28 12:22:34;;;;;;;16.00;13.00;;;;;;;;;;5011065;28;20066;-56
2021/01/28 12:25:00;;;;;;;15.20;12.37;;;;;;;;;;5015526;28;20108;-56
2021/01/28 12:27:27;;;;;;;18.67;13.17;;;;;;;;;;5023106;28;20056;-55
2021/01/28 12:29:53;;;;;;;24.87;14.53;;;;;;;;;;5023813;28;20037;-54
2021/01/28 12:32:19;;;;;;;16.97;14.33;;;;;;;;;;5016940;28;20037;-55
2021/01/28 12:34:46;;;;;;;20.37;13.17;;;;;;;;;;5033976;28;20056;-56
2021/01/28 12:37:13;;;;;;;19.13;14.47;;;;;;;;;;5034564;28;20074;-55
2021/01/28 12:39:40;;;;;;;16.43;12.43;;;;;;;;;;5033043;28;20056;-54
2021/01/28 12:42:06;;;;;;;14.53;12.83;;;;;;;;;;5032380;28;20080;-61
2021/01/28 12:44:32;;;;;;;20.27;13.13;;;;;;;;;;5029583;28;20030;-61
2021/01/28 12:46:58;;;;;;;17.17;13.23;;;;;;;;;;5032799;28;20029;-61
2021/01/28 12:49:24;;;;;;;19.50;15.33;;;;;;;;;;5032832;28;20044;-61
2021/01/28 12:51:53;;;;;;;14.93;12.43;;;;;;;;;;5032005;28;20184;-61
2021/01/28 12:54:19;;;;;;;17.27;13.07;;;;;;;;;;5010933;28;20666;-57
2021/01/28 12:56:45;;;;;;;17.67;13.97;;;;;;;;;;5036070;28;20046;-56
2021/01/28 12:59:11;;;;;;;18.87;14.07;;;;;;;;;;5025456;28;20065;-56
2021/01/28 13:01:37;;;;;;;23.07;14.13;;;;;;;;;;5025830;28;20072;-57
2021/01/28 13:04:03;;;;;;;17.93;13.57;;;;;;;;;;5024655;28;20116;-57
2021/01/28 13:06:29;;;;;;;19.30;14.23;;;;;;;;;;5017374;28;20111;-55
2021/01/28 13:08:56;;;;;;;14.63;12.70;;;;;;;;;;5021588;28;22183;-55
2021/01/28 13:11:23;;;;;;;16.20;13.47;;;;;;;;;;5013699;28;20041;-55
2021/01/28 13:13:49;;;;;;;20.10;13.63;;;;;;;;;;5036068;28;20057;-54
2021/01/28 13:16:15;;;;;;;17.27;13.00;;;;;;;;;;5028696;28;20662;-56
2021/01/28 13:18:41;;;;;;;24.07;14.23;;;;;;;;;;5035061;28;20033;-58
2021/01/28 13:21:07;;;;;;;13.90;12.23;;;;;;;;;;5031660;28;20111;-58
2021/01/28 13:23:33;;;;;;;18.93;14.17;;;;;;;;;;5023425;28;20311;-57
2021/01/28 13:25:59;;;;;;;16.77;13.60;;;;;;;;;;5012805;28;20052;-58
2021/01/28 13:28:25;;;;;;;16.63;13.70;;;;;;;;;;5018142;28;20174;-59
2021/01/28 13:30:51;;;;;;;20.67;12.93;;;;;;;;;;5015994;28;20114;-57
2021/01/28 13:33:18;;;;;;;18.80;13.20;;;;;;;;;;5039256;28;20131;-60
2021/01/28 13:35:44;;;;;;;18.37;14.33;;;;;;;;;;5026358;28;20498;-52
2021/01/28 13:38:10;;;;;;;14.80;12.97;;;;;;;;;;5032203;28;20112;-53
2021/01/28 13:40:36;;;;;;;18.53;13.53;;;;;;;;;;5028677;28;20049;-52
2021/01/28 13:43:03;;;;;;;17.67;13.37;;;;;;;;;;5037384;28;20118;-53
2021/01/28 13:45:30;;;;;;;15.90;12.87;;;;;;;;;;5028916;28;20047;-52
2021/01/28 13:47:57;;;;;;;19.40;12.07;;;;;;;;;;5029271;28;20100;-55
2021/01/28 13:50:28;;;;;;;17.73;13.90;;;;;;;;;;5015879;28;20049;-56
2021/01/28 13:52:54;;;;;;;17.90;13.53;;;;;;;;;;5021776;28;20045;-57
2021/01/28 13:55:21;;;;;;;16.20;13.63;;;;;;;;;;5029982;28;20120;-56
2021/01/28 13:57:47;;;;;;;17.90;14.00;;;;;;;;;;5027137;28;20063;-57
2021/01/28 14:00:14;;;;;;;17.10;13.20;;;;;;;;;;5036371;28;20027;-57
2021/01/28 14:02:40;;;;;;;14.30;12.83;;;;;;;;;;5029526;28;20440;-57
2021/01/28 14:05:08;;;;;;;20.40;14.23;;;;;;;;;;5031180;28;20581;-57
2021/01/28 14:07:34;;;;;;;20.87;15.03;;;;;;;;;;5015336;28;20462;-56
2021/01/28 14:10:03;;;;;;;15.93;14.00;;;;;;;;;;5031464;28;20072;-55
2021/01/28 14:12:29;;;;;;;23.37;16.00;;;;;;;;;;5028767;28;20428;-56
2021/01/28 14:14:55;;;;;;;82.30;65.33;;;;;;;;;;5031605;28;20041;-54
2021/01/28 14:17:21;;;;;;;21.30;16.67;;;;;;;;;;5027550;28;20087;-55
2021/01/28 14:19:50;;;;;;;21.40;14.57;;;;;;;;;;5030858;28;20526;-56
2021/01/28 14:22:16;;;;;;;19.73;15.90;;;;;;;;;;5028220;28;20142;-56
2021/01/28 14:24:42;;;;;;;23.63;15.17;;;;;;;;;;5025955;28;20486;-51
2021/01/28 14:27:08;;;;;;;20.20;15.03;;;;;;;;;;5024236;28;20047;-53
2021/01/28 14:29:34;;;;;;;23.50;17.60;;;;;;;;;;5032087;28;20544;-56
2021/01/28 14:32:00;;;;;;;20.10;15.63;;;;;;;;;;5025902;28;20059;-56
2021/01/28 14:34:26;;;;;;;23.50;15.93;;;;;;;;;;5031141;28;20487;-57
2021/01/28 14:36:52;;;;;;;20.57;15.50;;;;;;;;;;5030838;28;20037;-56
2021/01/28 14:39:18;;;;;;;18.83;14.17;;;;;;;;;;5026662;28;20033;-55
2021/01/28 14:41:44;;;;;;;18.47;15.63;;;;;;;;;;5036069;28;20049;-54
2021/01/28 14:44:11;;;;;;;19.87;14.77;;;;;;;;;;5028362;28;20052;-54
2021/01/28 14:46:37;;;;;;;18.67;15.00;;;;;;;;;;5023189;28;20049;-52
2021/01/28 14:49:03;;;;;;;17.83;13.57;;;;;;;;;;5025082;28;20557;-54
2021/01/28 14:51:28;;;;;;;19.73;14.73;;;;;;;;;;5030051;28;20597;-51